Terminal Aerodrome Forecast
Issued by NWS

Home | Current Version | Previous Version | Text Only | Print | Product List | Glossary On
Versions: 1 2 3 4 5 6 7 8 9 10 11 12 13 14 15 16 17 18 19 20 21 22 23 24 25 26 27 28 29 30
000
FTUS44 KOHX 181100
TAFCKV
TAF
KCKV 181120Z 1812/1912 07006KT 5SM BR BKN060
     FM181230 06005KT P6SM OVC250
     FM190100 05003KT P6SM SKC
     FM191100 00000KT 4SM BR SKC=

USA.gov is the U.S. government's official web portal to all federal, state and local government web resources and services.